Terminal Aerodrome Forecast
Issued by NWS

Home | Current Version | Previous Version | Text Only | Print | Product List | Glossary Off
Versions: 1 2 3 4 5 6 7 8 9 10 11 12 13 14 15 16 17 18 19 20 21 22 23 24 25 26 27 28 29 30 31

000
FTUS43 KLOT 171700
TAFMDW
TAF
KMDW 171734Z 1718/1818 23013G22KT P6SM FEW030 SCT250
     FM171900 24010KT P6SM FEW030 BKN250
     FM180100 31004KT P6SM SCT040 BKN100
     FM180500 36004KT P6SM SCT030 BKN080
     FM181100 03007KT P6SM SCT050=

USA.gov is the U.S. government's official web portal to all federal, state and local government web resources and services.